Time;durP1;ratioP1;P1;durP2;ratioP2;P2;SDS_P1;SDS_P2;PMS_P1;PMS_P2;Temp;Humidity;BMP_temperature;BMP_pressure;BME280_temperature;BME280_humidity;BME280_pressure;Samples;Min_cycle;Max_cycle;Signal;HPM_P1;HPM_P2
2023/11/14 00:02:08;;;;;;;15.20;7.32;;;;;;;;;;6285238;28;20040;-70
2023/11/14 00:05:10;;;;;;;15.15;7.78;;;;;;;;;;6281229;28;20089;-70
2023/11/14 00:08:12;;;;;;;15.23;8.80;;;;;;;;;;6256167;28;20043;-70
2023/11/14 00:11:14;;;;;;;12.80;7.18;;;;;;;;;;6266281;28;20711;-70
2023/11/14 00:14:16;;;;;;;11.93;6.55;;;;;;;;;;6284618;28;20045;-69
2023/11/14 00:17:19;;;;;;;14.77;8.13;;;;;;;;;;6285769;28;20048;-69
2023/11/14 00:20:21;;;;;;;14.90;9.90;;;;;;;;;;6285890;28;20571;-70
2023/11/14 00:23:24;;;;;;;27.15;10.55;;;;;;;;;;6285781;28;20113;-70
2023/11/14 00:26:26;;;;;;;17.33;8.48;;;;;;;;;;6286023;28;20075;-69
2023/11/14 00:29:29;;;;;;;17.17;10.15;;;;;;;;;;6285809;28;20635;-70
2023/11/14 00:32:32;;;;;;;22.30;8.10;;;;;;;;;;6268275;28;20048;-70
2023/11/14 00:35:34;;;;;;;13.75;7.30;;;;;;;;;;6285200;28;20519;-70
2023/11/14 00:38:36;;;;;;;13.88;8.77;;;;;;;;;;6275796;28;20052;-70
2023/11/14 00:41:38;;;;;;;12.50;7.60;;;;;;;;;;6285515;28;20059;-69
2023/11/14 00:44:40;;;;;;;13.32;7.45;;;;;;;;;;6285373;28;20050;-69
2023/11/14 00:47:43;;;;;;;14.20;7.65;;;;;;;;;;6285271;28;20044;-69
2023/11/14 00:50:45;;;;;;;12.55;7.82;;;;;;;;;;6280780;28;20856;-69
2023/11/14 00:53:51;;;;;;;11.30;7.28;;;;;;;;;;6267046;28;20037;-69
2023/11/14 00:56:53;;;;;;;12.35;7.50;;;;;;;;;;6284482;28;20049;-69
2023/11/14 00:59:55;;;;;;;11.18;5.65;;;;;;;;;;6285363;28;20044;-69
2023/11/14 01:03:00;;;;;;;12.05;6.35;;;;;;;;;;6266043;28;20052;-70
2023/11/14 01:06:04;;;;;;;11.05;5.63;;;;;;;;;;6281766;28;20442;-69
2023/11/14 01:09:08;;;;;;;9.57;6.15;;;;;;;;;;6274363;28;20603;-70
2023/11/14 01:12:12;;;;;;;8.98;5.95;;;;;;;;;;6283394;28;20052;-70
2023/11/14 01:15:14;;;;;;;9.48;5.30;;;;;;;;;;6283022;28;20037;-70
2023/11/14 01:18:16;;;;;;;9.65;6.03;;;;;;;;;;6266293;28;20060;-70
2023/11/14 01:21:18;;;;;;;10.30;5.82;;;;;;;;;;6249380;28;20515;-70
2023/11/14 01:24:20;;;;;;;12.00;6.78;;;;;;;;;;6284600;28;20562;-71
2023/11/14 01:27:22;;;;;;;12.65;6.97;;;;;;;;;;6266671;28;20060;-71
2023/11/14 01:30:24;;;;;;;9.45;6.18;;;;;;;;;;6284781;28;20594;-70
2023/11/14 01:33:26;;;;;;;10.48;4.97;;;;;;;;;;6271555;28;20078;-70
2023/11/14 01:36:28;;;;;;;8.32;5.88;;;;;;;;;;6282306;28;20517;-71
2023/11/14 01:39:31;;;;;;;11.00;5.05;;;;;;;;;;6253249;28;20057;-70
2023/11/14 01:42:33;;;;;;;7.30;3.63;;;;;;;;;;6284214;28;20048;-70
2023/11/14 01:45:35;;;;;;;7.80;3.88;;;;;;;;;;6266148;28;20044;-70
2023/11/14 01:48:37;;;;;;;6.78;3.72;;;;;;;;;;6266773;28;20048;-70
2023/11/14 01:51:40;;;;;;;8.45;3.58;;;;;;;;;;6278399;28;20178;-70
2023/11/14 01:54:42;;;;;;;6.05;4.55;;;;;;;;;;6267002;28;20507;-71
2023/11/14 01:57:46;;;;;;;6.32;5.40;;;;;;;;;;6280211;28;20110;-71
2023/11/14 02:00:49;;;;;;;7.70;4.15;;;;;;;;;;6250136;28;20052;-71
2023/11/14 02:03:51;;;;;;;10.05;4.50;;;;;;;;;;6284785;28;20147;-71
2023/11/14 02:06:53;;;;;;;8.90;5.07;;;;;;;;;;6287411;28;20134;-71
2023/11/14 02:09:55;;;;;;;8.90;5.82;;;;;;;;;;6270629;28;20554;-72
2023/11/14 02:12:57;;;;;;;6.22;4.22;;;;;;;;;;6286182;28;20135;-72
2023/11/14 02:15:59;;;;;;;7.03;4.50;;;;;;;;;;6287964;28;20048;-72
2023/11/14 02:19:01;;;;;;;9.63;4.80;;;;;;;;;;6274670;28;20159;-71
2023/11/14 02:22:03;;;;;;;10.30;5.05;;;;;;;;;;6270251;28;20161;-72
2023/11/14 02:25:07;;;;;;;7.25;5.05;;;;;;;;;;6288591;28;20511;-71
2023/11/14 02:28:09;;;;;;;6.63;4.25;;;;;;;;;;6270992;28;20040;-72
2023/11/14 02:31:11;;;;;;;7.20;5.15;;;;;;;;;;6269287;28;20055;-72
2023/11/14 02:34:13;;;;;;;8.00;4.97;;;;;;;;;;6270621;28;20040;-71
2023/11/14 02:37:15;;;;;;;6.30;4.22;;;;;;;;;;6288600;28;20041;-73
2023/11/14 02:40:17;;;;;;;10.40;4.70;;;;;;;;;;6268813;28;20044;-72
2023/11/14 02:43:20;;;;;;;10.38;5.15;;;;;;;;;;6287466;28;20175;-72
2023/11/14 02:46:22;;;;;;;8.82;5.18;;;;;;;;;;6287076;28;20207;-71
2023/11/14 02:49:55;;;;;;;6.93;4.30;;;;;;;;;;6257477;28;20045;-72
2023/11/14 02:52:59;;;;;;;6.10;4.05;;;;;;;;;;6260798;28;20033;-72
2023/11/14 02:56:01;;;;;;;8.95;4.25;;;;;;;;;;6278272;28;20055;-72
2023/11/14 02:59:04;;;;;;;7.13;4.20;;;;;;;;;;6288274;28;20052;-72
2023/11/14 03:02:07;;;;;;;10.15;5.30;;;;;;;;;;6287555;28;20112;-72
2023/11/14 03:05:09;;;;;;;9.50;5.10;;;;;;;;;;6287697;28;20594;-72
2023/11/14 03:08:12;;;;;;;6.72;4.80;;;;;;;;;;6287503;28;20554;-72
2023/11/14 03:11:14;;;;;;;12.32;4.40;;;;;;;;;;6255947;28;20044;-72
2023/11/14 03:14:16;;;;;;;7.20;5.28;;;;;;;;;;6284481;28;20040;-72
2023/11/14 03:17:18;;;;;;;12.00;4.03;;;;;;;;;;6286652;28;20040;-71
2023/11/14 03:20:20;;;;;;;6.55;4.40;;;;;;;;;;6270031;28;20109;-72
2023/11/14 03:23:34;;;;;;;8.15;4.47;;;;;;;;;;6278737;28;20518;-71
2023/11/14 03:26:36;;;;;;;12.32;4.93;;;;;;;;;;6269723;28;20112;-72
2023/11/14 03:29:39;;;;;;;21.27;9.60;;;;;;;;;;6286852;28;20048;-71
2023/11/14 03:32:41;;;;;;;21.65;12.18;;;;;;;;;;6286568;28;20055;-72
2023/11/14 03:35:43;;;;;;;16.95;10.48;;;;;;;;;;6267272;28;20075;-72
2023/11/14 03:38:46;;;;;;;16.38;11.43;;;;;;;;;;6286297;28;20620;-71
2023/11/14 03:41:49;;;;;;;12.40;6.68;;;;;;;;;;6249057;28;20062;-72
2023/11/14 03:44:51;;;;;;;8.63;4.80;;;;;;;;;;6269246;28;20055;-72
2023/11/14 03:47:53;;;;;;;11.27;6.75;;;;;;;;;;6268972;28;20052;-71
2023/11/14 03:50:57;;;;;;;25.80;14.00;;;;;;;;;;6286668;28;20051;-71
2023/11/14 03:53:59;;;;;;;20.55;12.35;;;;;;;;;;6268752;28;20510;-71
2023/11/14 03:57:02;;;;;;;9.68;6.47;;;;;;;;;;6285380;28;20105;-72
2023/11/14 04:00:05;;;;;;;8.50;5.43;;;;;;;;;;6285675;28;20137;-71
2023/11/14 04:03:13;;;;;;;8.15;4.88;;;;;;;;;;6285206;28;20064;-71
2023/11/14 04:06:16;;;;;;;13.65;5.10;;;;;;;;;;6284723;28;20097;-71
2023/11/14 04:09:18;;;;;;;7.93;4.50;;;;;;;;;;6284536;28;20048;-71
2023/11/14 04:12:20;;;;;;;6.70;4.55;;;;;;;;;;6266655;28;20071;-71
2023/11/14 04:15:22;;;;;;;7.68;5.88;;;;;;;;;;6284682;28;20458;-70
2023/11/14 04:18:24;;;;;;;9.48;5.85;;;;;;;;;;6251082;28;20522;-71
2023/11/14 04:21:26;;;;;;;8.73;4.43;;;;;;;;;;6286145;28;20060;-70
2023/11/14 04:24:31;;;;;;;7.00;4.50;;;;;;;;;;6245129;28;20071;-71
2023/11/14 04:27:34;;;;;;;8.70;4.55;;;;;;;;;;6285171;28;20125;-70
2023/11/14 04:30:36;;;;;;;6.15;4.45;;;;;;;;;;6285584;28;20051;-71
2023/11/14 04:33:38;;;;;;;6.47;4.80;;;;;;;;;;6267882;28;20052;-71
2023/11/14 04:36:41;;;;;;;7.60;5.00;;;;;;;;;;6265683;28;20052;-72
2023/11/14 04:39:45;;;;;;;9.95;6.07;;;;;;;;;;6266355;28;20053;-71
2023/11/14 04:42:47;;;;;;;11.82;4.82;;;;;;;;;;6265510;28;20444;-71
2023/11/14 04:45:49;;;;;;;8.52;4.72;;;;;;;;;;6264495;28;20466;-71
2023/11/14 04:48:52;;;;;;;11.10;6.90;;;;;;;;;;6266408;28;20060;-70
2023/11/14 04:51:55;;;;;;;14.65;9.48;;;;;;;;;;6265678;28;20105;-72
2023/11/14 04:54:58;;;;;;;19.23;10.55;;;;;;;;;;6262500;28;20076;-73
2023/11/14 04:58:02;;;;;;;14.25;9.73;;;;;;;;;;6267579;28;20075;-72
2023/11/14 05:01:03;;;;;;;17.38;10.00;;;;;;;;;;6279648;28;20125;-71
2023/11/14 05:04:06;;;;;;;15.98;10.13;;;;;;;;;;6285174;28;20052;-72
2023/11/14 05:07:08;;;;;;;14.68;9.30;;;;;;;;;;6267215;28;20887;-71
2023/11/14 05:10:11;;;;;;;22.65;13.98;;;;;;;;;;6264550;28;20105;-72
2023/11/14 05:13:13;;;;;;;16.70;10.18;;;;;;;;;;6283030;28;20055;-71
2023/11/14 05:16:15;;;;;;;19.90;11.73;;;;;;;;;;6282185;28;20098;-70
2023/11/14 05:19:27;;;;;;;23.00;12.40;;;;;;;;;;6265559;28;20367;-71
2023/11/14 05:22:29;;;;;;;24.80;11.55;;;;;;;;;;6277842;28;20140;-70
2023/11/14 05:25:31;;;;;;;16.08;9.70;;;;;;;;;;6270540;28;20041;-70
2023/11/14 05:28:37;;;;;;;16.00;10.93;;;;;;;;;;6263113;28;20056;-71
2023/11/14 05:31:39;;;;;;;17.13;10.73;;;;;;;;;;6280794;28;20045;-72
2023/11/14 05:34:41;;;;;;;19.60;13.52;;;;;;;;;;6279893;28;20489;-72
2023/11/14 05:37:44;;;;;;;27.30;14.75;;;;;;;;;;6278037;28;20484;-71
2023/11/14 05:40:46;;;;;;;24.27;16.75;;;;;;;;;;6284785;28;20519;-70
2023/11/14 05:43:48;;;;;;;19.50;13.45;;;;;;;;;;6286041;28;20048;-71
2023/11/14 05:46:50;;;;;;;25.60;14.85;;;;;;;;;;6263637;28;20051;-71
2023/11/14 05:49:53;;;;;;;21.48;14.07;;;;;;;;;;6279928;28;20574;-71
2023/11/14 05:52:55;;;;;;;24.55;15.80;;;;;;;;;;6265504;28;20499;-71
2023/11/14 05:55:57;;;;;;;27.67;15.15;;;;;;;;;;6264817;28;20353;-70
2023/11/14 05:58:59;;;;;;;28.88;14.55;;;;;;;;;;6265414;28;20044;-70
2023/11/14 06:02:01;;;;;;;20.25;12.90;;;;;;;;;;6284114;28;20676;-72
2023/11/14 06:05:04;;;;;;;26.70;16.00;;;;;;;;;;6267764;28;20144;-71
2023/11/14 06:08:06;;;;;;;27.63;13.52;;;;;;;;;;6285560;28;20040;-70
2023/11/14 06:11:09;;;;;;;22.15;12.00;;;;;;;;;;6285976;28;20071;-70
2023/11/14 06:14:14;;;;;;;16.58;10.77;;;;;;;;;;6277910;28;20127;-71
2023/11/14 06:17:16;;;;;;;16.60;9.52;;;;;;;;;;6285622;28;20043;-68
2023/11/14 06:20:19;;;;;;;19.08;12.38;;;;;;;;;;6275033;28;20190;-70
2023/11/14 06:23:21;;;;;;;17.85;13.77;;;;;;;;;;6282331;28;20060;-70
2023/11/14 06:26:23;;;;;;;17.65;11.95;;;;;;;;;;6266333;28;20056;-71
2023/11/14 06:29:25;;;;;;;17.95;10.07;;;;;;;;;;6282483;28;20048;-70
2023/11/14 06:32:28;;;;;;;19.98;11.60;;;;;;;;;;6282029;28;20040;-70
2023/11/14 06:35:31;;;;;;;14.75;9.32;;;;;;;;;;6281696;28;20039;-70
2023/11/14 06:38:33;;;;;;;25.08;15.20;;;;;;;;;;6282225;28;20052;-70
2023/11/14 06:41:35;;;;;;;21.83;13.95;;;;;;;;;;6265811;28;20091;-70
2023/11/14 06:44:37;;;;;;;24.75;13.52;;;;;;;;;;6283741;28;20595;-71
2023/11/14 06:47:39;;;;;;;16.20;10.27;;;;;;;;;;6285135;28;20063;-72
2023/11/14 06:50:42;;;;;;;18.55;10.25;;;;;;;;;;6285093;28;20048;-72
2023/11/14 06:53:47;;;;;;;15.02;9.65;;;;;;;;;;6281026;28;20056;-72
2023/11/14 06:56:50;;;;;;;19.65;9.25;;;;;;;;;;6287669;28;20156;-72
2023/11/14 06:59:52;;;;;;;20.55;11.85;;;;;;;;;;6266978;28;20036;-70
2023/11/14 07:02:54;;;;;;;12.45;8.57;;;;;;;;;;6286684;28;20557;-72
2023/11/14 07:05:56;;;;;;;12.43;9.18;;;;;;;;;;6286500;28;20123;-71
2023/11/14 07:08:58;;;;;;;12.60;8.00;;;;;;;;;;6269066;28;20135;-71
2023/11/14 07:12:00;;;;;;;9.82;7.22;;;;;;;;;;6286914;28;20049;-69
2023/11/14 07:15:06;;;;;;;13.05;7.72;;;;;;;;;;6282849;28;20490;-71
2023/11/14 07:18:09;;;;;;;8.98;5.97;;;;;;;;;;6286773;28;20055;-72
2023/11/14 07:21:11;;;;;;;9.27;5.72;;;;;;;;;;6287131;28;20105;-70
2023/11/14 07:24:14;;;;;;;11.55;7.95;;;;;;;;;;6285913;28;20044;-68
2023/11/14 07:27:16;;;;;;;16.73;8.55;;;;;;;;;;6286638;28;20040;-71
2023/11/14 07:30:18;;;;;;;17.92;11.60;;;;;;;;;;6285426;28;20526;-71
2023/11/14 07:33:20;;;;;;;13.75;9.18;;;;;;;;;;6268655;28;20055;-71
2023/11/14 07:36:22;;;;;;;17.40;10.35;;;;;;;;;;6286139;28;20183;-71
2023/11/14 07:39:24;;;;;;;16.40;10.05;;;;;;;;;;6261760;28;20063;-76
2023/11/14 07:42:26;;;;;;;12.38;7.38;;;;;;;;;;6281384;28;20401;-70
2023/11/14 07:45:32;;;;;;;9.98;5.05;;;;;;;;;;6256877;28;20760;-68
2023/11/14 07:48:35;;;;;;;7.40;5.05;;;;;;;;;;6279874;28;20057;-69
2023/11/14 07:51:37;;;;;;;5.93;3.78;;;;;;;;;;6277676;28;20127;-71
2023/11/14 07:54:39;;;;;;;8.38;4.80;;;;;;;;;;6279142;28;20045;-71
2023/11/14 07:57:41;;;;;;;9.70;5.60;;;;;;;;;;6279006;28;20060;-69
2023/11/14 08:00:43;;;;;;;8.32;5.10;;;;;;;;;;6281974;28;20044;-68
2023/11/14 08:03:45;;;;;;;8.63;6.15;;;;;;;;;;6280365;28;20045;-70
2023/11/14 08:06:47;;;;;;;8.10;5.40;;;;;;;;;;6283537;28;20450;-70
2023/11/14 08:09:50;;;;;;;10.30;5.53;;;;;;;;;;6282944;28;20044;-71
2023/11/14 08:12:52;;;;;;;7.85;3.25;;;;;;;;;;6285178;28;20153;-70
2023/11/14 08:15:54;;;;;;;6.05;3.53;;;;;;;;;;6283316;28;20203;-69
2023/11/14 08:18:55;;;;;;;7.45;4.28;;;;;;;;;;6282746;28;20060;-70
2023/11/14 08:22:03;;;;;;;9.32;4.53;;;;;;;;;;6282909;28;20049;-70
2023/11/14 08:25:05;;;;;;;12.32;5.60;;;;;;;;;;6279835;28;20052;-72
2023/11/14 08:28:09;;;;;;;7.43;3.83;;;;;;;;;;6244630;28;20044;-70
2023/11/14 08:31:12;;;;;;;8.57;5.10;;;;;;;;;;6279334;28;20045;-70
2023/11/14 08:34:15;;;;;;;13.18;4.80;;;;;;;;;;6281004;28;20519;-70
2023/11/14 08:37:17;;;;;;;6.13;4.10;;;;;;;;;;6280277;28;20181;-71
2023/11/14 08:40:25;;;;;;;8.73;4.88;;;;;;;;;;6262902;28;20518;-71
2023/11/14 08:43:28;;;;;;;11.55;5.03;;;;;;;;;;6280388;28;20118;-71
2023/11/14 08:46:30;;;;;;;8.38;5.20;;;;;;;;;;6262562;28;20303;-70
2023/11/14 08:49:32;;;;;;;7.70;4.68;;;;;;;;;;6274436;28;20059;-70
2023/11/14 08:52:34;;;;;;;15.23;6.65;;;;;;;;;;6282274;28;20079;-70
2023/11/14 08:55:37;;;;;;;12.98;5.50;;;;;;;;;;6281595;28;20080;-70
2023/11/14 08:58:39;;;;;;;13.32;5.43;;;;;;;;;;6278906;28;20097;-72
2023/11/14 09:01:42;;;;;;;11.27;4.95;;;;;;;;;;6261297;28;20040;-70
2023/11/14 09:04:44;;;;;;;8.80;4.40;;;;;;;;;;6277825;28;20097;-69
2023/11/14 09:07:47;;;;;;;8.75;4.47;;;;;;;;;;6281223;28;20050;-71
2023/11/14 09:10:50;;;;;;;7.07;4.28;;;;;;;;;;6282700;28;20067;-70
2023/11/14 09:13:56;;;;;;;6.93;4.15;;;;;;;;;;6283369;28;20044;-71
2023/11/14 09:16:58;;;;;;;7.93;4.57;;;;;;;;;;6283748;28;20049;-69
2023/11/14 09:20:00;;;;;;;12.45;6.22;;;;;;;;;;6285535;28;20056;-70
2023/11/14 09:23:04;;;;;;;8.50;4.88;;;;;;;;;;6283173;28;20071;-70
2023/11/14 09:26:08;;;;;;;7.82;3.72;;;;;;;;;;6281315;28;20186;-70
2023/11/14 09:29:10;;;;;;;7.60;3.90;;;;;;;;;;6279531;28;20064;-69
2023/11/14 09:32:12;;;;;;;7.75;3.63;;;;;;;;;;6281970;28;20257;-70
2023/11/14 09:35:14;;;;;;;9.93;3.85;;;;;;;;;;6285222;28;20102;-71
2023/11/14 09:38:17;;;;;;;8.52;4.45;;;;;;;;;;6287913;28;20056;-69
2023/11/14 09:41:19;;;;;;;6.15;3.95;;;;;;;;;;6287654;28;20099;-69
2023/11/14 09:44:22;;;;;;;6.07;3.40;;;;;;;;;;6250118;28;20143;-69
2023/11/14 09:47:25;;;;;;;6.13;3.67;;;;;;;;;;6288185;28;20079;-69
2023/11/14 09:50:27;;;;;;;6.82;3.47;;;;;;;;;;6270644;28;20122;-70
2023/11/14 09:53:30;;;;;;;9.43;4.05;;;;;;;;;;6286682;28;20715;-69
2023/11/14 09:56:32;;;;;;;5.47;3.10;;;;;;;;;;6287615;28;20044;-69
2023/11/14 09:59:35;;;;;;;9.68;3.28;;;;;;;;;;6268832;28;20083;-70
2023/11/14 10:02:38;;;;;;;6.38;3.38;;;;;;;;;;6286153;28;20052;-69
2023/11/14 10:05:41;;;;;;;7.45;3.03;;;;;;;;;;6286360;28;20048;-69
2023/11/14 10:08:43;;;;;;;7.07;3.70;;;;;;;;;;6288301;28;20041;-69
2023/11/14 10:11:57;;;;;;;8.63;2.80;;;;;;;;;;6275433;28;20040;-69
2023/11/14 10:15:35;;;;;;;5.43;2.70;;;;;;;;;;6290975;28;20064;-68
2023/11/14 10:18:37;;;;;;;6.70;2.58;;;;;;;;;;6288135;28;20047;-68
2023/11/14 10:21:39;;;;;;;5.55;2.95;;;;;;;;;;6286622;28;20542;-68
2023/11/14 10:24:41;;;;;;;7.13;3.33;;;;;;;;;;6270170;28;20052;-68
2023/11/14 10:27:55;;;;;;;7.18;3.05;;;;;;;;;;6270518;28;20435;-68
2023/11/14 10:30:59;;;;;;;5.90;3.70;;;;;;;;;;6287426;28;20049;-69
2023/11/14 10:34:25;;;;;;;8.27;3.40;;;;;;;;;;6287789;28;20060;-69
2023/11/14 10:37:31;;;;;;;6.03;2.42;;;;;;;;;;6287412;28;20043;-68
2023/11/14 10:40:53;;;;;;;7.82;3.38;;;;;;;;;;6280480;28;20562;-68
2023/11/14 10:44:05;;;;;;;9.27;3.50;;;;;;;;;;6289281;28;20051;-70
2023/11/14 10:47:09;;;;;;;7.90;2.97;;;;;;;;;;6286289;28;20133;-69
2023/11/14 10:50:31;;;;;;;6.95;3.45;;;;;;;;;;6271490;28;20143;-68
2023/11/14 10:53:33;;;;;;;6.53;2.80;;;;;;;;;;6288168;28;20082;-69
2023/11/14 10:56:37;;;;;;;5.22;2.53;;;;;;;;;;6266089;28;20503;-69
2023/11/14 10:59:54;;;;;;;8.15;3.33;;;;;;;;;;6285787;28;20399;-69
2023/11/14 11:02:56;;;;;;;7.65;4.07;;;;;;;;;;6269910;28;20048;-69
2023/11/14 11:05:58;;;;;;;6.57;3.78;;;;;;;;;;6269898;28;20044;-69
2023/11/14 11:09:01;;;;;;;7.03;3.60;;;;;;;;;;6287286;28;20135;-69
2023/11/14 11:12:04;;;;;;;6.50;3.70;;;;;;;;;;6268958;28;20047;-69
2023/11/14 11:15:10;;;;;;;8.73;3.88;;;;;;;;;;6272433;28;20578;-69
2023/11/14 11:18:13;;;;;;;8.05;4.05;;;;;;;;;;6281782;28;20774;-69
2023/11/14 11:21:15;;;;;;;6.15;3.13;;;;;;;;;;6286432;28;20083;-68
2023/11/14 11:24:18;;;;;;;6.88;3.28;;;;;;;;;;6282578;28;20056;-70
2023/11/14 11:27:41;;;;;;;8.55;4.28;;;;;;;;;;6270603;28;20048;-69
2023/11/14 11:31:04;;;;;;;9.65;3.17;;;;;;;;;;6285854;28;20074;-69
2023/11/14 11:34:26;;;;;;;8.13;3.13;;;;;;;;;;6286101;28;20046;-69
2023/11/14 11:37:57;;;;;;;5.72;2.75;;;;;;;;;;6285930;28;20052;-69
2023/11/14 11:41:06;;;;;;;7.10;3.42;;;;;;;;;;6283144;28;20048;-69
2023/11/14 11:44:14;;;;;;;6.90;3.97;;;;;;;;;;6284731;28;20439;-69
2023/11/14 11:47:33;;;;;;;8.02;3.85;;;;;;;;;;6286138;28;20330;-68
2023/11/14 11:50:35;;;;;;;9.35;3.65;;;;;;;;;;6286434;28;20451;-67
2023/11/14 11:53:42;;;;;;;6.65;3.40;;;;;;;;;;6284783;28;20044;-68
2023/11/14 11:56:45;;;;;;;7.30;3.97;;;;;;;;;;6283082;28;20047;-68
2023/11/14 11:59:47;;;;;;;8.18;2.63;;;;;;;;;;6283543;28;20052;-68
2023/11/14 12:02:50;;;;;;;10.63;4.13;;;;;;;;;;6283612;28;20082;-68
2023/11/14 12:05:56;;;;;;;8.30;4.28;;;;;;;;;;6269277;28;20041;-68
2023/11/14 12:09:00;;;;;;;10.02;3.72;;;;;;;;;;6285531;28;20127;-69
2023/11/14 12:12:03;;;;;;;9.35;3.38;;;;;;;;;;6287312;28;20044;-70
2023/11/14 12:15:07;;;;;;;9.93;4.60;;;;;;;;;;6285599;28;20690;-70
2023/11/14 12:18:10;;;;;;;9.77;3.28;;;;;;;;;;6285557;28;20040;-69
2023/11/14 12:21:12;;;;;;;8.82;4.00;;;;;;;;;;6286937;28;20036;-71
2023/11/14 12:24:15;;;;;;;9.90;4.32;;;;;;;;;;6299862;28;20127;-71
2023/11/14 12:27:17;;;;;;;7.28;3.05;;;;;;;;;;6287814;28;20367;-70
2023/11/14 12:30:19;;;;;;;7.45;3.53;;;;;;;;;;6267244;28;20101;-69
2023/11/14 12:33:21;;;;;;;13.82;4.80;;;;;;;;;;6287424;28;20059;-70
2023/11/14 12:36:24;;;;;;;7.85;3.85;;;;;;;;;;6288676;28;20093;-69
2023/11/14 12:39:26;;;;;;;11.02;4.47;;;;;;;;;;6285722;28;20036;-70
2023/11/14 12:42:29;;;;;;;7.25;4.10;;;;;;;;;;6286961;28;20056;-70
2023/11/14 12:45:44;;;;;;;8.57;4.63;;;;;;;;;;6266602;28;20553;-70
2023/11/14 12:49:09;;;;;;;14.30;5.28;;;;;;;;;;6284931;28;20607;-70
2023/11/14 12:52:11;;;;;;;10.27;4.90;;;;;;;;;;6285310;28;20052;-70
2023/11/14 12:55:14;;;;;;;17.92;8.68;;;;;;;;;;6281844;28;20123;-71
2023/11/14 12:58:15;;;;;;;35.65;20.80;;;;;;;;;;6286623;28;20044;-70
2023/11/14 13:01:18;;;;;;;12.48;5.97;;;;;;;;;;6284180;28;20076;-70
2023/11/14 13:04:20;;;;;;;12.13;6.10;;;;;;;;;;6280044;28;20060;-70
2023/11/14 13:07:22;;;;;;;13.50;5.40;;;;;;;;;;6263940;28;20465;-70
2023/11/14 13:10:25;;;;;;;8.52;4.35;;;;;;;;;;6286043;28;20044;-70
2023/11/14 13:13:27;;;;;;;13.40;7.78;;;;;;;;;;6286628;28;20570;-70
2023/11/14 13:16:29;;;;;;;11.23;5.63;;;;;;;;;;6286324;28;20132;-71
2023/11/14 13:19:31;;;;;;;13.50;4.97;;;;;;;;;;6268575;28;20049;-70
2023/11/14 13:22:33;;;;;;;10.68;5.32;;;;;;;;;;6285074;28;20072;-70
2023/11/14 13:25:37;;;;;;;16.45;5.43;;;;;;;;;;6285660;28;20101;-71
2023/11/14 13:28:39;;;;;;;10.52;5.25;;;;;;;;;;6268299;28;20045;-71
2023/11/14 13:31:42;;;;;;;12.85;5.13;;;;;;;;;;6280781;28;20045;-70
2023/11/14 13:34:44;;;;;;;11.07;5.68;;;;;;;;;;6287923;28;20040;-71
2023/11/14 13:37:46;;;;;;;14.80;5.68;;;;;;;;;;6290088;28;20059;-71
2023/11/14 13:40:48;;;;;;;8.40;4.45;;;;;;;;;;6287449;28;20617;-70
2023/11/14 13:43:51;;;;;;;18.40;4.93;;;;;;;;;;6268336;28;20735;-70
2023/11/14 13:46:55;;;;;;;12.60;7.50;;;;;;;;;;6286614;28;20411;-70
2023/11/14 13:49:59;;;;;;;11.18;5.68;;;;;;;;;;6284108;28;20036;-70
2023/11/14 13:53:02;;;;;;;11.75;4.78;;;;;;;;;;6282364;28;20430;-70
2023/11/14 13:56:04;;;;;;;12.15;6.90;;;;;;;;;;6270563;28;20052;-70
2023/11/14 13:59:06;;;;;;;16.50;7.85;;;;;;;;;;6265764;28;20048;-70
2023/11/14 14:02:09;;;;;;;18.75;9.38;;;;;;;;;;6271587;28;20213;-69
2023/11/14 14:05:11;;;;;;;9.95;4.75;;;;;;;;;;6291902;28;20044;-70
2023/11/14 14:08:14;;;;;;;9.18;3.88;;;;;;;;;;6292581;28;20084;-70
2023/11/14 14:11:16;;;;;;;17.20;7.03;;;;;;;;;;6293191;28;20139;-70
2023/11/14 14:14:18;;;;;;;14.57;5.35;;;;;;;;;;6282140;28;20078;-71
2023/11/14 14:17:21;;;;;;;11.65;6.15;;;;;;;;;;6273821;28;20067;-70
2023/11/14 14:20:23;;;;;;;12.68;5.00;;;;;;;;;;6290397;28;20084;-70
2023/11/14 14:23:26;;;;;;;14.75;4.70;;;;;;;;;;6292775;28;20052;-70
2023/11/14 14:26:29;;;;;;;18.02;6.05;;;;;;;;;;6292057;28;20059;-71
2023/11/14 14:29:35;;;;;;;13.30;4.80;;;;;;;;;;6290948;28;20048;-72
2023/11/14 14:32:38;;;;;;;8.52;2.83;;;;;;;;;;6291611;28;20049;-69
2023/11/14 14:35:40;;;;;;;12.50;2.42;;;;;;;;;;6288625;28;20040;-69
2023/11/14 14:38:45;;;;;;;10.23;2.72;;;;;;;;;;6289335;28;20048;-69
2023/11/14 14:41:48;;;;;;;8.68;2.58;;;;;;;;;;6291080;28;20608;-69
2023/11/14 14:44:52;;;;;;;5.15;1.85;;;;;;;;;;6291657;28;20178;-70
2023/11/14 14:47:54;;;;;;;10.35;2.88;;;;;;;;;;6279399;28;20623;-69
2023/11/14 14:50:56;;;;;;;6.70;3.03;;;;;;;;;;6288814;28;20045;-70
2023/11/14 14:53:58;;;;;;;7.13;2.45;;;;;;;;;;6287568;28;20036;-69
2023/11/14 14:57:01;;;;;;;5.30;2.42;;;;;;;;;;6293272;28;20055;-68
2023/11/14 15:00:18;;;;;;;6.88;2.00;;;;;;;;;;6293745;28;20179;-68
2023/11/14 15:03:20;;;;;;;5.15;2.50;;;;;;;;;;6289973;28;20056;-67
2023/11/14 15:06:23;;;;;;;6.22;2.85;;;;;;;;;;6291905;28;20052;-69
2023/11/14 15:09:33;;;;;;;3.90;2.38;;;;;;;;;;6290674;28;20125;-69
2023/11/14 15:12:35;;;;;;;5.03;2.33;;;;;;;;;;6284761;28;20087;-68
2023/11/14 15:15:37;;;;;;;6.53;2.88;;;;;;;;;;6291546;28;20175;-69
2023/11/14 15:18:39;;;;;;;4.22;1.95;;;;;;;;;;6291246;28;20147;-69
2023/11/14 15:21:42;;;;;;;11.98;8.63;;;;;;;;;;6290970;28;20045;-69
2023/11/14 15:24:44;;;;;;;7.60;2.70;;;;;;;;;;6287466;28;20125;-70
2023/11/14 15:27:46;;;;;;;5.85;3.60;;;;;;;;;;6273808;28;20047;-69
2023/11/14 15:30:48;;;;;;;10.25;3.40;;;;;;;;;;6286384;28;20051;-71
2023/11/14 15:33:51;;;;;;;98.85;50.10;;;;;;;;;;6291918;28;20052;-69
2023/11/14 15:36:53;;;;;;;12.63;6.63;;;;;;;;;;6292328;28;20051;-69
2023/11/14 15:39:55;;;;;;;11.43;3.63;;;;;;;;;;6290492;28;20062;-68
2023/11/14 15:42:58;;;;;;;16.65;9.45;;;;;;;;;;6291191;28;20052;-69
2023/11/14 15:46:04;;;;;;;24.90;14.85;;;;;;;;;;6287715;28;20447;-68
2023/11/14 15:49:07;;;;;;;37.00;25.55;;;;;;;;;;6249976;28;20053;-68
2023/11/14 15:52:09;;;;;;;15.88;8.32;;;;;;;;;;6273868;28;20484;-68
2023/11/14 15:55:11;;;;;;;14.20;7.63;;;;;;;;;;6291772;28;20435;-68
2023/11/14 15:58:13;;;;;;;13.82;8.60;;;;;;;;;;6289499;28;20056;-68
2023/11/14 16:01:16;;;;;;;9.40;6.15;;;;;;;;;;6268519;28;20146;-69
2023/11/14 16:04:19;;;;;;;8.05;4.60;;;;;;;;;;6291318;28;20139;-68
2023/11/14 16:07:21;;;;;;;6.43;3.53;;;;;;;;;;6291540;28;20182;-68
2023/11/14 16:10:23;;;;;;;6.30;2.47;;;;;;;;;;6291671;28;20243;-70
2023/11/14 16:13:29;;;;;;;11.45;3.60;;;;;;;;;;6291309;28;20052;-68
2023/11/14 16:16:31;;;;;;;4.35;2.30;;;;;;;;;;6288064;28;20519;-68
2023/11/14 16:19:36;;;;;;;4.45;2.67;;;;;;;;;;6290316;28;20102;-68
2023/11/14 16:22:39;;;;;;;5.25;1.85;;;;;;;;;;6269563;28;20054;-68
2023/11/14 16:25:45;;;;;;;15.23;7.55;;;;;;;;;;6290755;28;20128;-69
2023/11/14 16:28:48;;;;;;;4.40;2.20;;;;;;;;;;6291453;28;20717;-69
2023/11/14 16:31:50;;;;;;;12.43;6.10;;;;;;;;;;6287669;28;20056;-69
2023/11/14 16:34:52;;;;;;;5.68;2.38;;;;;;;;;;6286379;28;20050;-70
2023/11/14 16:37:55;;;;;;;16.83;7.35;;;;;;;;;;6263973;28;20037;-67
2023/11/14 16:40:57;;;;;;;13.55;6.82;;;;;;;;;;6284425;28;20565;-68
2023/11/14 16:43:59;;;;;;;7.90;3.33;;;;;;;;;;6286623;28;20044;-69
2023/11/14 16:47:06;;;;;;;24.20;9.63;;;;;;;;;;6285887;28;20056;-69
2023/11/14 16:50:08;;;;;;;17.27;7.00;;;;;;;;;;6286430;28;20056;-69
2023/11/14 16:53:10;;;;;;;15.05;5.68;;;;;;;;;;6286463;28;20043;-68
2023/11/14 16:56:14;;;;;;;22.13;7.43;;;;;;;;;;6287134;28;20040;-69
2023/11/14 16:59:16;;;;;;;11.43;5.13;;;;;;;;;;6286013;28;20036;-68
2023/11/14 17:02:19;;;;;;;5.10;1.98;;;;;;;;;;6268795;28;20048;-70
2023/11/14 17:05:21;;;;;;;5.72;2.33;;;;;;;;;;6268326;28;20075;-69
2023/11/14 17:08:23;;;;;;;3.33;1.50;;;;;;;;;;6264430;28;20106;-68
2023/11/14 17:11:25;;;;;;;3.60;1.58;;;;;;;;;;6248655;28;20126;-68
2023/11/14 17:14:27;;;;;;;4.28;2.22;;;;;;;;;;6283313;28;20048;-68
2023/11/14 17:17:29;;;;;;;9.60;4.55;;;;;;;;;;6286576;28;20083;-68
2023/11/14 17:20:32;;;;;;;4.18;2.08;;;;;;;;;;6282704;28;20056;-68
2023/11/14 17:23:37;;;;;;;2.13;1.30;;;;;;;;;;6267887;28;20049;-69
2023/11/14 17:26:40;;;;;;;7.68;4.63;;;;;;;;;;6286182;28;20045;-68
2023/11/14 17:29:42;;;;;;;8.15;4.60;;;;;;;;;;6285583;28;20044;-68
2023/11/14 17:32:45;;;;;;;6.32;4.15;;;;;;;;;;6286225;28;20044;-68
2023/11/14 17:35:48;;;;;;;6.18;4.35;;;;;;;;;;6288024;28;20123;-68
2023/11/14 17:38:50;;;;;;;9.02;5.80;;;;;;;;;;6289793;28;20120;-68
2023/11/14 17:41:52;;;;;;;5.43;2.35;;;;;;;;;;6272951;28;20074;-68
2023/11/14 17:44:55;;;;;;;4.35;2.83;;;;;;;;;;6290783;28;20502;-69
2023/11/14 17:47:57;;;;;;;7.25;3.33;;;;;;;;;;6290713;28;20523;-67
2023/11/14 17:50:59;;;;;;;10.45;3.80;;;;;;;;;;6292334;28;20040;-69
2023/11/14 17:54:01;;;;;;;9.70;4.28;;;;;;;;;;6257554;28;20849;-69
2023/11/14 17:57:03;;;;;;;7.38;4.78;;;;;;;;;;6291085;28;20045;-69
2023/11/14 18:00:13;;;;;;;14.85;6.47;;;;;;;;;;6288472;28;20060;-69
2023/11/14 18:03:16;;;;;;;17.35;9.95;;;;;;;;;;6273471;28;20449;-70
2023/11/14 18:06:19;;;;;;;11.70;6.65;;;;;;;;;;6273119;28;20049;-70
2023/11/14 18:09:27;;;;;;;14.25;7.13;;;;;;;;;;6290671;28;20044;-70
2023/11/14 18:12:29;;;;;;;16.60;11.35;;;;;;;;;;6289995;28;20067;-70